createdAt,value
2022-11-05T00:00:37.807Z,99790.44
2022-11-05T00:02:58.224Z,99777.66
2022-11-05T00:05:18.568Z,99774.94
2022-11-05T00:08:10.488Z,99787.75
2022-11-05T00:10:20.818Z,99787.75
2022-11-05T00:12:41.168Z,99796.28
2022-11-05T00:15:01.699Z,99792.72
2022-11-05T00:17:04.560Z,99796.19
2022-11-05T00:19:07.590Z,99792.56
2022-11-05T00:21:29.424Z,99783.00
2022-11-05T00:23:50.055Z,99793.34
2022-11-05T00:26:03.704Z,99794.03
2022-11-05T00:28:05.533Z,99796.53
2022-11-05T00:30:09.389Z,99793.03
2022-11-05T00:32:11.224Z,99786.19
2022-11-05T00:34:13.116Z,99786.19
2022-11-05T00:36:14.921Z,99788.59
2022-11-05T00:38:16.848Z,99778.34
2022-11-05T00:40:20.826Z,99775.72
2022-11-05T00:42:41.227Z,99772.31
2022-11-05T00:45:03.587Z,99773.25
2022-11-05T00:47:25.363Z,99765.56
2022-11-05T00:49:33.151Z,99769.03
2022-11-05T00:51:35.177Z,99773.34
2022-11-05T00:53:37.108Z,99772.50
2022-11-05T00:55:46.103Z,99763.94
2022-11-05T00:57:50.563Z,99760.50
2022-11-05T00:59:52.399Z,99760.53
2022-11-05T01:01:54.446Z,99756.25
2022-11-05T01:03:57.343Z,99764.84
2022-11-05T01:06:08.822Z,99760.56
2022-11-05T01:08:12.547Z,99757.13
2022-11-05T01:10:15.383Z,99763.19
2022-11-05T01:12:17.266Z,99762.28
2022-11-05T01:14:20.230Z,99771.69
2022-11-05T01:16:27.072Z,99781.13
2022-11-05T01:18:29.014Z,99768.31
2022-11-05T01:20:31.317Z,99778.56
2022-11-05T01:22:34.158Z,99782.91
2022-11-05T01:24:37.019Z,99787.91
2022-11-05T01:26:38.966Z,99791.41
2022-11-05T01:28:40.942Z,99793.16
2022-11-05T01:30:42.869Z,99793.13
2022-11-05T01:32:45.742Z,99787.19
2022-11-05T01:34:53.622Z,99786.25
2022-11-05T01:36:55.473Z,99786.19
2022-11-05T01:39:03.557Z,99797.44
2022-11-05T01:41:05.752Z,99799.19
2022-11-05T01:43:21.660Z,99803.50
2022-11-05T01:45:28.253Z,99802.66
2022-11-05T01:47:41.347Z,99807.88
2022-11-05T01:49:47.319Z,99800.94
2022-11-05T01:51:49.653Z,99794.94
2022-11-05T01:53:54.151Z,99800.91
2022-11-05T01:56:03.520Z,99806.78
2022-11-05T01:58:09.693Z,99802.50
2022-11-05T02:00:12.413Z,99811.91
2022-11-05T02:02:14.969Z,99808.50
2022-11-05T02:04:32.005Z,99802.44
2022-11-05T02:06:37.678Z,99799.81
2022-11-05T02:09:03.025Z,99811.81
2022-11-05T02:11:05.960Z,99812.59
2022-11-05T02:13:08.141Z,99808.31
2022-11-05T02:15:13.041Z,99804.06
2022-11-05T02:17:42.777Z,99804.91
2022-11-05T02:20:11.015Z,99798.88
2022-11-05T02:22:30.975Z,99801.38
2022-11-05T02:24:52.075Z,99801.34
2022-11-05T02:27:21.050Z,99797.94
2022-11-05T02:29:56.578Z,99803.06
2022-11-05T02:32:05.779Z,99802.13
2022-11-05T02:34:39.598Z,99806.47
2022-11-05T02:36:54.651Z,99806.38
2022-11-05T02:39:02.028Z,99808.13
2022-11-05T02:41:24.196Z,99809.84
2022-11-05T02:43:59.968Z,99822.59
2022-11-05T02:46:15.214Z,99824.31
2022-11-05T02:48:38.511Z,99819.22
2022-11-05T02:50:52.613Z,99828.53
2022-11-05T02:52:59.676Z,99835.22
2022-11-05T02:55:22.174Z,99829.28
2022-11-05T02:57:29.261Z,99833.47
2022-11-05T02:59:31.547Z,99835.06
2022-11-05T03:01:37.158Z,99836.78
2022-11-05T03:03:50.484Z,99840.19
2022-11-05T03:05:59.259Z,99835.06
2022-11-05T03:08:12.144Z,99832.59
2022-11-05T03:10:27.262Z,99832.56
2022-11-05T03:12:51.470Z,99829.94
2022-11-05T03:14:53.281Z,99839.44
2022-11-05T03:17:04.974Z,99846.16
2022-11-05T03:19:13.752Z,99849.63
2022-11-05T03:21:45.763Z,99857.31
2022-11-05T03:23:56.587Z,99854.75
2022-11-05T03:26:31.591Z,99858.97
2022-11-05T03:28:38.212Z,99854.56
2022-11-05T03:30:42.312Z,99862.22
2022-11-05T03:32:53.651Z,99854.41
2022-11-05T03:35:08.759Z,99862.94
2022-11-05T03:37:11.948Z,99853.50
2022-11-05T03:39:52.836Z,99850.81
2022-11-05T03:41:57.699Z,99856.81
2022-11-05T03:44:04.220Z,99864.50
2022-11-05T03:46:30.111Z,99860.22
2022-11-05T03:48:38.490Z,99863.63
2022-11-05T03:51:07.579Z,99871.19
2022-11-05T03:53:37.237Z,99879.78
2022-11-05T03:55:55.365Z,99874.63
2022-11-05T03:57:59.077Z,99873.81
2022-11-05T04:00:01.008Z,99889.13
2022-11-05T04:02:03.987Z,99885.63
2022-11-05T04:04:06.842Z,99895.13
2022-11-05T04:06:28.829Z,99897.72
2022-11-05T04:08:49.466Z,99906.19
2022-11-05T04:11:10.096Z,99901.88
2022-11-05T04:13:24.359Z,99906.13
2022-11-05T04:15:27.111Z,99901.13
2022-11-05T04:17:31.073Z,99908.03
2022-11-05T04:19:53.715Z,99906.25
2022-11-05T04:22:15.069Z,99920.75
2022-11-05T04:24:18.040Z,99925.84
2022-11-05T04:26:23.646Z,99918.13
2022-11-05T04:28:46.959Z,99917.38
2022-11-05T04:30:49.901Z,99920.72
2022-11-05T04:33:11.596Z,99907.84
2022-11-05T04:35:17.677Z,99915.53
2022-11-05T04:37:19.558Z,99923.16
2022-11-05T04:39:22.420Z,99932.53
2022-11-05T04:41:27.366Z,99938.50
2022-11-05T04:43:30.309Z,99935.94
2022-11-05T04:45:35.807Z,99939.22
2022-11-05T04:47:38.703Z,99953.75
2022-11-05T04:49:42.559Z,99948.63
2022-11-05T04:51:44.389Z,99952.91
2022-11-05T04:53:52.167Z,99944.25
2022-11-05T04:56:10.474Z,99950.25
2022-11-05T04:58:16.337Z,99946.81
2022-11-05T05:00:22.407Z,99931.47
2022-11-05T05:02:24.631Z,99938.28
2022-11-05T05:04:26.487Z,99932.22
2022-11-05T05:06:28.467Z,99925.41
2022-11-05T05:08:31.364Z,99936.53
2022-11-05T05:10:33.297Z,99936.44
2022-11-05T05:12:35.726Z,99946.69
2022-11-05T05:14:48.236Z,99939.00
2022-11-05T05:16:58.079Z,99951.81
2022-11-05T05:18:59.987Z,99948.25
2022-11-05T05:21:21.396Z,99955.06
2022-11-05T05:23:24.304Z,99964.31
2022-11-05T05:25:26.176Z,99959.13
2022-11-05T05:27:30.277Z,99975.34
2022-11-05T05:29:32.150Z,99964.94
2022-11-05T05:31:36.628Z,99976.94
2022-11-05T05:33:38.564Z,99977.75
2022-11-05T05:35:40.391Z,99982.72
2022-11-05T05:37:44.576Z,99983.53
2022-11-05T05:39:53.895Z,99989.50
2022-11-05T05:41:55.799Z,99986.91
2022-11-05T05:43:57.671Z,99988.56
2022-11-05T05:46:07.616Z,99991.06
2022-11-05T05:48:09.635Z,99991.94
2022-11-05T05:50:12.588Z,99997.03
2022-11-05T05:52:15.444Z,100002.16
2022-11-05T05:54:18.360Z,99999.53
2022-11-05T05:56:26.366Z,99999.47
2022-11-05T05:58:34.511Z,100003.75
2022-11-05T06:00:38.528Z,100002.03
2022-11-05T06:02:42.589Z,100003.78
2022-11-05T06:04:44.596Z,100008.06
2022-11-05T06:06:47.111Z,100011.41
2022-11-05T06:08:49.253Z,100005.38
2022-11-05T06:10:51.830Z,100018.22
2022-11-05T06:12:55.709Z,100012.28
2022-11-05T06:14:57.718Z,100015.63
2022-11-05T06:17:00.601Z,100016.50
2022-11-05T06:19:03.502Z,100019.94
2022-11-05T06:21:07.754Z,100015.72
2022-11-05T06:23:12.964Z,100030.22
2022-11-05T06:25:15.155Z,100037.03
2022-11-05T06:27:17.075Z,100028.50
2022-11-05T06:29:18.880Z,100035.28
2022-11-05T06:31:23.429Z,100035.28
2022-11-05T06:33:25.936Z,100035.28
2022-11-05T06:35:27.847Z,100034.44
2022-11-05T06:37:33.696Z,100037.91
2022-11-05T06:39:37.660Z,100035.34
2022-11-05T06:42:04.128Z,100028.59
2022-11-05T06:44:02.511Z,100037.13
2022-11-05T06:46:04.989Z,100039.69
2022-11-05T06:48:14.919Z,100038.88
2022-11-05T06:50:16.847Z,100047.34
2022-11-05T06:52:24.405Z,100046.56
2022-11-05T06:54:26.331Z,100053.38
2022-11-05T06:56:34.950Z,100053.44
2022-11-05T06:58:37.988Z,100048.31
2022-11-05T07:00:40.030Z,100048.38
2022-11-05T07:02:43.091Z,100046.66
2022-11-05T07:04:45.078Z,100054.41
2022-11-05T07:06:51.929Z,100054.47
2022-11-05T07:08:54.277Z,100048.56
2022-11-05T07:10:57.234Z,100058.81
2022-11-05T07:13:02.388Z,100057.97
2022-11-05T07:15:10.422Z,100062.34
2022-11-05T07:17:13.345Z,100053.84
2022-11-05T07:19:17.199Z,100059.84
2022-11-05T07:21:19.940Z,100059.06
2022-11-05T07:23:21.851Z,100052.25
2022-11-05T07:25:23.743Z,100059.13
2022-11-05T07:27:25.748Z,100059.19
2022-11-05T07:29:27.581Z,100060.94
2022-11-05T07:31:29.461Z,100067.84
2022-11-05T07:33:36.561Z,100072.16
2022-11-05T07:35:38.753Z,100074.00
2022-11-05T07:37:48.452Z,100073.16
2022-11-05T07:39:51.451Z,100078.31
2022-11-05T07:41:57.891Z,100088.63
2022-11-05T07:43:59.826Z,100092.06
2022-11-05T07:46:03.751Z,100099.78
2022-11-05T07:48:06.004Z,100093.81
2022-11-05T07:50:09.850Z,100100.66
2022-11-05T07:52:13.810Z,100107.53
2022-11-05T07:54:17.698Z,100114.44
2022-11-05T07:56:21.758Z,100123.03
2022-11-05T07:58:23.669Z,100126.50
2022-11-05T08:00:27.043Z,100123.88
2022-11-05T08:02:36.438Z,100122.28
2022-11-05T08:04:40.484Z,100131.69
2022-11-05T08:06:45.453Z,100119.72
2022-11-05T08:08:53.440Z,100122.34
2022-11-05T08:11:03.107Z,100126.56
2022-11-05T08:13:06.388Z,100120.59
2022-11-05T08:15:08.943Z,100125.75
2022-11-05T08:17:12.503Z,100129.19
2022-11-05T08:19:19.897Z,100126.66
2022-11-05T08:21:22.807Z,100131.78
2022-11-05T08:23:24.864Z,100129.22
2022-11-05T08:25:29.439Z,100116.41
2022-11-05T08:27:31.357Z,100115.63
2022-11-05T08:29:33.294Z,100125.09
2022-11-05T08:31:44.221Z,100120.81
2022-11-05T08:33:49.687Z,100120.91
2022-11-05T08:35:51.666Z,100126.03
2022-11-05T08:38:00.898Z,100127.78
2022-11-05T08:40:06.002Z,100118.44
2022-11-05T08:42:08.905Z,100115.88
2022-11-05T08:44:10.837Z,100118.56
2022-11-05T08:46:13.741Z,100113.44
2022-11-05T08:48:19.858Z,100122.09
2022-11-05T08:50:21.941Z,100123.00
2022-11-05T08:52:30.845Z,100123.81
2022-11-05T08:54:35.927Z,100148.81
2022-11-05T08:56:37.986Z,100141.88
2022-11-05T08:58:40.942Z,100146.13
2022-11-05T09:00:46.625Z,100150.34
2022-11-05T09:02:50.657Z,100159.66
2022-11-05T09:04:53.637Z,100159.84
2022-11-05T09:06:56.634Z,100164.13
2022-11-05T09:08:58.470Z,100152.22
2022-11-05T09:11:00.397Z,100161.06
2022-11-05T09:13:05.293Z,100165.34
2022-11-05T09:15:08.796Z,100167.16
2022-11-05T09:17:17.874Z,100174.94
2022-11-05T09:19:21.524Z,100168.97
2022-11-05T09:21:25.794Z,100167.25
2022-11-05T09:23:27.685Z,100170.69
2022-11-05T09:25:30.537Z,100168.97
2022-11-05T09:27:32.732Z,100178.50
2022-11-05T09:29:34.607Z,100177.50
2022-11-05T09:31:38.438Z,100186.97
2022-11-05T09:33:41.655Z,100180.16
2022-11-05T09:35:44.928Z,100179.28
2022-11-05T09:37:47.853Z,100174.16
2022-11-05T09:39:49.813Z,100182.78
2022-11-05T09:42:03.013Z,100191.44
2022-11-05T09:44:19.293Z,100195.00
2022-11-05T09:46:31.701Z,100189.88
2022-11-05T09:48:35.802Z,100185.69
2022-11-05T09:50:46.049Z,100199.34
2022-11-05T09:52:49.211Z,100207.06
2022-11-05T09:54:51.789Z,100205.25
2022-11-05T09:56:56.639Z,100206.75
2022-11-05T09:59:15.772Z,100214.44
2022-11-05T10:01:23.944Z,100217.06
2022-11-05T10:03:30.271Z,100212.84
2022-11-05T10:05:34.475Z,100223.28
2022-11-05T10:07:44.115Z,100221.72
2022-11-05T10:09:53.953Z,100229.41
2022-11-05T10:12:36.079Z,100231.19
2022-11-05T10:14:46.936Z,100241.47
2022-11-05T10:17:36.309Z,100232.94
2022-11-05T10:20:03.291Z,100236.31
2022-11-05T10:22:13.935Z,100242.38
2022-11-05T10:24:23.625Z,100246.69
2022-11-05T10:26:32.697Z,100243.31
2022-11-05T10:28:37.627Z,100247.63
2022-11-05T10:31:06.630Z,100257.13
2022-11-05T10:33:14.519Z,100262.28
2022-11-05T10:35:22.752Z,100264.00
2022-11-05T10:37:27.322Z,100260.56
2022-11-05T10:39:31.195Z,100260.56
2022-11-05T10:41:33.080Z,100259.78
2022-11-05T10:43:50.789Z,100253.75
2022-11-05T10:46:02.034Z,100265.69
2022-11-05T10:48:23.263Z,100262.28
2022-11-05T10:50:28.348Z,100252.91
2022-11-05T10:52:53.022Z,100250.31
2022-11-05T10:54:59.996Z,100243.50
2022-11-05T10:57:27.223Z,100243.50
2022-11-05T10:59:32.053Z,100253.97
2022-11-05T11:01:34.395Z,100262.56
2022-11-05T11:03:40.314Z,100267.59
2022-11-05T11:05:46.402Z,100266.78
2022-11-05T11:07:58.611Z,100270.97
2022-11-05T11:10:01.842Z,100267.41
2022-11-05T11:12:41.110Z,100265.66
2022-11-05T11:15:01.063Z,100275.13
2022-11-05T11:17:29.915Z,100278.41
2022-11-05T11:19:37.679Z,100280.06
2022-11-05T11:21:41.882Z,100279.19
2022-11-05T11:24:04.607Z,100283.47
2022-11-05T11:26:09.195Z,100280.84
2022-11-05T11:28:29.730Z,100283.38
2022-11-05T11:30:34.058Z,100279.97
2022-11-05T11:33:07.299Z,100291.09
2022-11-05T11:35:22.052Z,100279.09
2022-11-05T11:37:28.246Z,100277.38
2022-11-05T11:39:32.617Z,100283.41
2022-11-05T11:41:43.316Z,100282.50
2022-11-05T11:43:57.048Z,100287.66
2022-11-05T11:46:19.882Z,100284.31
2022-11-05T11:48:30.826Z,100287.63
2022-11-05T11:50:49.223Z,100287.63
2022-11-05T11:52:52.745Z,100291.91
2022-11-05T11:55:27.980Z,100300.53
2022-11-05T11:57:30.945Z,100304.84
2022-11-05T12:00:06.566Z,100310.78
2022-11-05T12:02:35.459Z,100310.91
2022-11-05T12:05:11.352Z,100312.63
2022-11-05T12:07:45.175Z,100316.09
2022-11-05T12:10:15.048Z,100319.56
2022-11-05T12:12:41.321Z,100317.00
2022-11-05T12:15:01.942Z,100311.13
2022-11-05T12:17:12.742Z,100317.13
2022-11-05T12:19:34.580Z,100318.88
2022-11-05T12:22:00.293Z,100318.88
2022-11-05T12:24:22.362Z,100318.84
2022-11-05T12:26:26.932Z,100324.88
2022-11-05T12:28:31.496Z,100315.47
2022-11-05T12:30:49.656Z,100306.06
2022-11-05T12:33:03.628Z,100315.47
2022-11-05T12:35:25.433Z,100312.97
2022-11-05T12:37:49.503Z,100308.63
2022-11-05T12:39:51.458Z,100310.28
2022-11-05T12:42:02.580Z,100311.06
2022-11-05T12:44:37.259Z,100310.09
2022-11-05T12:46:54.918Z,100317.69
2022-11-05T12:49:19.957Z,100304.84
2022-11-05T12:51:27.680Z,100309.13
2022-11-05T12:53:40.540Z,100306.50
2022-11-05T12:55:48.525Z,100311.56
2022-11-05T12:57:55.142Z,100309.78
2022-11-05T13:00:08.869Z,100308.03
2022-11-05T13:02:43.530Z,100321.63
2022-11-05T13:05:14.151Z,100318.97
2022-11-05T13:07:25.654Z,100326.63
2022-11-05T13:09:34.988Z,100325.97
2022-11-05T13:12:00.677Z,100330.25
2022-11-05T13:17:07.942Z,100327.88
2022-11-05T13:19:16.004Z,100336.38
2022-11-05T13:21:25.223Z,100339.84
2022-11-05T13:23:40.213Z,100344.19
2022-11-05T13:25:49.602Z,100342.38
2022-11-05T13:27:54.327Z,100343.19
2022-11-05T13:30:03.409Z,100346.72
2022-11-05T13:32:22.332Z,100349.41
2022-11-05T13:34:24.355Z,100357.19
2022-11-05T13:36:58.461Z,100360.66
2022-11-05T13:39:20.888Z,100361.56
2022-11-05T13:41:39.119Z,100364.09
2022-11-05T13:44:07.452Z,100372.69
2022-11-05T13:46:47.785Z,100376.97
2022-11-05T13:49:27.820Z,100375.38
2022-11-05T13:51:57.132Z,100376.22
2022-11-05T13:54:17.850Z,100374.53
2022-11-05T13:56:39.395Z,100377.94
2022-11-05T13:59:18.574Z,100380.44
2022-11-05T14:01:39.720Z,100387.34
2022-11-05T14:03:51.683Z,100389.00
2022-11-05T14:06:03.766Z,100395.03
2022-11-05T14:08:18.779Z,100395.91
2022-11-05T14:10:41.884Z,100399.31
2022-11-05T14:12:53.149Z,100400.84
2022-11-05T14:15:17.752Z,100405.97
2022-11-05T14:17:57.864Z,100411.09
2022-11-05T14:20:05.651Z,100421.28
2022-11-05T14:22:39.101Z,100416.88
2022-11-05T14:24:44.649Z,100411.66
2022-11-05T14:27:10.118Z,100414.97
2022-11-05T14:29:22.193Z,100427.75
2022-11-05T14:32:08.417Z,100432.91
2022-11-05T14:34:17.024Z,100430.44
2022-11-05T14:36:30.528Z,100429.47
2022-11-05T14:38:49.746Z,100430.25
2022-11-05T14:41:04.272Z,100431.03
2022-11-05T14:43:22.160Z,100436.84
2022-11-05T14:45:35.243Z,100441.09
2022-11-05T14:47:43.402Z,100446.31
2022-11-05T14:50:38.892Z,100447.13
2022-11-05T14:52:52.650Z,100447.94
2022-11-05T14:54:58.278Z,100453.13
2022-11-05T14:57:02.765Z,100449.84
2022-11-05T14:59:33.588Z,100440.44
2022-11-05T15:01:48.059Z,100455.94
2022-11-05T15:04:16.456Z,100448.19
2022-11-05T15:06:36.585Z,100458.44
2022-11-05T15:08:48.482Z,100459.25
2022-11-05T15:10:51.317Z,100458.31
2022-11-05T15:13:02.627Z,100461.69
2022-11-05T15:15:22.158Z,100463.34
2022-11-05T15:17:30.535Z,100457.28
2022-11-05T15:19:37.835Z,100465.81
2022-11-05T15:21:41.766Z,100469.16
2022-11-05T15:23:48.149Z,100473.41
2022-11-05T15:26:26.204Z,100469.09
2022-11-05T15:28:41.230Z,100469.91
2022-11-05T15:31:13.772Z,100472.41
2022-11-05T15:33:21.222Z,100476.72
2022-11-05T15:35:31.906Z,100481.72
2022-11-05T15:37:37.968Z,100482.59
2022-11-05T15:39:43.583Z,100488.66
2022-11-05T15:41:46.995Z,100485.22
2022-11-05T15:43:52.367Z,100485.28
2022-11-05T15:46:31.545Z,100481.84
2022-11-05T15:48:34.791Z,100483.56
2022-11-05T15:50:38.682Z,100483.50
2022-11-05T15:52:51.759Z,100484.41
2022-11-05T15:55:14.102Z,100492.25
2022-11-05T15:57:28.465Z,100490.53
2022-11-05T15:59:36.287Z,100495.66
2022-11-05T16:02:09.708Z,100494.03
2022-11-05T16:04:39.950Z,100492.25
2022-11-05T16:06:47.421Z,100490.41
2022-11-05T16:09:02.147Z,100496.34
2022-11-05T16:11:04.710Z,100500.44
2022-11-05T16:13:40.066Z,100501.31
2022-11-05T16:15:54.343Z,100512.69
2022-11-05T16:18:03.495Z,100515.38
2022-11-05T16:20:23.614Z,100519.03
2022-11-05T16:22:51.066Z,100519.22
2022-11-05T16:24:53.135Z,100520.25
2022-11-05T16:27:07.065Z,100520.25
2022-11-05T16:29:16.277Z,100535.69
2022-11-05T16:31:29.932Z,100537.53
2022-11-05T16:33:34.485Z,100540.97
2022-11-05T16:35:49.402Z,100541.84
2022-11-05T16:37:53.706Z,100546.97
2022-11-05T16:39:55.974Z,100543.56
2022-11-05T16:41:59.909Z,100547.88
2022-11-05T16:44:03.450Z,100548.75
2022-11-05T16:46:05.926Z,100555.56
2022-11-05T16:48:11.967Z,100559.00
2022-11-05T16:50:17.918Z,100562.44
2022-11-05T16:52:19.872Z,100562.47
2022-11-05T16:54:22.028Z,100566.78
2022-11-05T16:56:25.111Z,100568.59
2022-11-05T16:58:27.723Z,100572.03
2022-11-05T17:00:30.186Z,100572.88
2022-11-05T17:02:32.792Z,100571.25
2022-11-05T17:04:34.946Z,100572.03
2022-11-05T17:06:37.008Z,100576.38
2022-11-05T17:08:39.029Z,100583.19
2022-11-05T17:10:41.439Z,100592.47
2022-11-05T17:12:44.296Z,100595.03
2022-11-05T17:14:46.491Z,100594.03
2022-11-05T17:16:48.805Z,100595.59
2022-11-05T17:18:51.525Z,100600.63
2022-11-05T17:20:56.659Z,100604.94
2022-11-05T17:22:59.910Z,100608.31
2022-11-05T17:25:04.053Z,100611.78
2022-11-05T17:27:07.118Z,100612.72
2022-11-05T17:29:09.605Z,100622.19
2022-11-05T17:31:13.939Z,100617.13
2022-11-05T17:33:16.771Z,100621.34
2022-11-05T17:35:19.604Z,100623.91
2022-11-05T17:37:21.617Z,100631.59
2022-11-05T17:39:31.422Z,100635.88
2022-11-05T17:41:35.026Z,100630.75
2022-11-05T17:43:38.058Z,100628.19
2022-11-05T17:45:45.857Z,100628.97
2022-11-05T17:47:48.100Z,100635.00
2022-11-05T17:49:51.049Z,100631.53
2022-11-05T17:51:53.647Z,100640.13
2022-11-05T17:53:56.299Z,100640.88
2022-11-05T17:55:59.195Z,100639.19
2022-11-05T17:58:04.579Z,100640.88
2022-11-05T18:00:07.697Z,100650.25
2022-11-05T18:02:13.081Z,100641.66
2022-11-05T18:04:15.212Z,100647.56
2022-11-05T18:06:17.749Z,100651.75
2022-11-05T18:08:20.120Z,100659.44
2022-11-05T18:10:23.327Z,100650.81
2022-11-05T18:12:25.434Z,100656.75
2022-11-05T18:14:27.850Z,100648.19
2022-11-05T18:16:31.530Z,100663.53
2022-11-05T18:18:34.360Z,100658.41
2022-11-05T18:20:38.187Z,100667.75
2022-11-05T18:22:41.141Z,100670.16
2022-11-05T18:24:43.523Z,100665.94
2022-11-05T18:26:45.827Z,100668.44
2022-11-05T18:28:50.811Z,100668.44
2022-11-05T18:30:53.328Z,100668.34
2022-11-05T18:32:55.735Z,100664.00
2022-11-05T18:34:58.108Z,100667.41
2022-11-05T18:37:01.430Z,100664.72
2022-11-05T18:39:05.778Z,100662.16
2022-11-05T18:41:08.328Z,100667.22
2022-11-05T18:43:10.967Z,100664.72
2022-11-05T18:45:13.333Z,100664.56
2022-11-05T18:47:15.954Z,100669.84
2022-11-05T18:49:18.307Z,100662.91
2022-11-05T18:51:21.881Z,100668.03
2022-11-05T18:53:24.324Z,100671.41
2022-11-05T18:55:26.671Z,100674.03
2022-11-05T18:57:29.359Z,100677.38
2022-11-05T18:59:39.745Z,100679.09
2022-11-05T19:01:42.758Z,100683.31
2022-11-05T19:03:45.543Z,100686.78
2022-11-05T19:05:47.895Z,100682.44
2022-11-05T19:07:50.198Z,100681.56
2022-11-05T19:09:52.032Z,100685.00
2022-11-05T19:11:57.516Z,100683.31
2022-11-05T19:14:00.425Z,100686.69
2022-11-05T19:16:04.183Z,100684.97
2022-11-05T19:18:06.580Z,100684.06
2022-11-05T19:20:11.973Z,100683.22
2022-11-05T19:22:14.360Z,100698.53
2022-11-05T19:24:20.411Z,100688.34
2022-11-05T19:26:28.524Z,100689.19
2022-11-05T19:28:31.531Z,100701.16
2022-11-05T19:30:33.891Z,100701.09
2022-11-05T19:32:36.239Z,100708.84
2022-11-05T19:34:43.253Z,100706.22
2022-11-05T19:36:46.025Z,100703.66
2022-11-05T19:38:50.210Z,100711.34
2022-11-05T19:40:53.495Z,100720.72
2022-11-05T19:42:56.458Z,100718.16
2022-11-05T19:45:16.674Z,100720.72
2022-11-05T19:47:21.790Z,100725.06
2022-11-05T19:49:24.220Z,100724.22
2022-11-05T19:51:29.593Z,100722.50
2022-11-05T19:53:32.095Z,100730.97
2022-11-05T19:55:34.479Z,100732.69
2022-11-05T19:57:37.624Z,100731.81
2022-11-05T19:59:41.003Z,100725.06
2022-11-05T20:01:44.081Z,100727.63
2022-11-05T20:03:49.549Z,100738.72
2022-11-05T20:05:52.110Z,100734.47
2022-11-05T20:07:54.527Z,100735.34
2022-11-05T20:09:56.823Z,100739.59
2022-11-05T20:11:58.934Z,100736.97
2022-11-05T20:14:01.959Z,100736.97
2022-11-05T20:16:06.507Z,100743.94
2022-11-05T20:18:09.119Z,100743.94
2022-11-05T20:20:12.009Z,100749.94
2022-11-05T20:22:14.344Z,100754.16
2022-11-05T20:24:24.211Z,100752.56
2022-11-05T20:26:28.425Z,100760.19
2022-11-05T20:28:31.560Z,100764.53
2022-11-05T20:30:33.935Z,100759.41
2022-11-05T20:32:37.111Z,100761.13
2022-11-05T20:34:39.431Z,100765.38
2022-11-05T20:36:41.686Z,100760.19
2022-11-05T20:38:45.253Z,100772.22
2022-11-05T20:40:50.649Z,100767.84
2022-11-05T20:42:52.992Z,100771.34
2022-11-05T20:44:55.457Z,100767.88
2022-11-05T20:46:57.853Z,100783.31
2022-11-05T20:48:59.879Z,100777.34
2022-11-05T20:51:08.537Z,100779.84
2022-11-05T20:53:12.208Z,100779.84
2022-11-05T20:55:14.553Z,100772.06
2022-11-05T20:57:16.654Z,100775.47
2022-11-05T20:59:19.900Z,100777.19
2022-11-05T21:01:22.088Z,100773.75
2022-11-05T21:03:24.511Z,100777.94
2022-11-05T21:05:30.027Z,100780.50
2022-11-05T21:07:35.347Z,100782.25
2022-11-05T21:09:37.592Z,100784.78
2022-11-05T21:11:58.212Z,100781.31
2022-11-05T21:14:00.572Z,100783.00
2022-11-05T21:16:05.162Z,100783.88
2022-11-05T21:18:07.273Z,100782.13
2022-11-05T21:20:09.858Z,100788.06
2022-11-05T21:22:15.781Z,100781.16
2022-11-05T21:24:19.249Z,100783.69
2022-11-05T21:26:21.575Z,100788.81
2022-11-05T21:28:24.319Z,100797.28
2022-11-05T21:30:26.536Z,100796.34
2022-11-05T21:32:30.341Z,100793.69
2022-11-05T21:34:32.780Z,100791.03
2022-11-05T21:36:34.999Z,100793.47
2022-11-05T21:38:38.017Z,100796.03
2022-11-05T21:40:40.802Z,100791.72
2022-11-05T21:42:43.936Z,100790.00
2022-11-05T21:44:46.260Z,100791.63
2022-11-05T21:46:48.368Z,100788.25
2022-11-05T21:48:50.311Z,100789.06
2022-11-05T21:51:23.000Z,100787.38
2022-11-05T21:53:44.063Z,100789.84
2022-11-05T21:56:06.595Z,100794.03
2022-11-05T21:58:36.664Z,100794.78
2022-11-05T22:00:40.979Z,100798.16
2022-11-05T22:02:52.604Z,100792.09
2022-11-05T22:05:07.975Z,100800.63
2022-11-05T22:07:12.120Z,100796.28
2022-11-05T22:09:14.012Z,100797.94
2022-11-05T22:11:19.365Z,100799.56
2022-11-05T22:13:36.251Z,100796.09
2022-11-05T22:15:39.177Z,100796.78
2022-11-05T22:17:56.232Z,100805.31
2022-11-05T22:19:58.660Z,100815.53
2022-11-05T22:22:05.513Z,100809.50
2022-11-05T22:24:36.171Z,100818.09
2022-11-05T22:26:40.127Z,100815.53
2022-11-05T22:28:48.543Z,100819.75
2022-11-05T22:30:53.199Z,100826.56
2022-11-05T22:32:55.088Z,100823.22
2022-11-05T22:35:08.151Z,100819.81
2022-11-05T22:37:16.166Z,100817.97
2022-11-05T22:39:18.263Z,100821.25
2022-11-05T22:41:22.709Z,100822.91
2022-11-05T22:43:24.752Z,100821.97
2022-11-05T22:45:26.686Z,100833.91
2022-11-05T22:47:28.525Z,100824.59
2022-11-05T22:49:34.109Z,100826.22
2022-11-05T22:51:40.813Z,100833.03
2022-11-05T22:53:45.504Z,100819.38
2022-11-05T22:55:53.332Z,100822.69
2022-11-05T22:58:01.917Z,100826.94
2022-11-05T23:00:17.070Z,100821.81
2022-11-05T23:02:19.018Z,100817.44
2022-11-05T23:04:30.123Z,100824.16
2022-11-05T23:06:52.341Z,100833.38
2022-11-05T23:09:12.930Z,100833.19
2022-11-05T23:16:57.583Z,100830.16
2022-11-05T23:19:18.138Z,100831.78
2022-11-05T23:21:42.974Z,100833.41
2022-11-05T23:24:03.617Z,100837.44
2022-11-05T23:26:28.421Z,100832.81
2022-11-05T23:28:30.372Z,100832.00
2022-11-05T23:30:38.098Z,100834.44
2022-11-05T23:32:46.483Z,100839.38
2022-11-05T23:34:53.251Z,100830.69
2022-11-05T23:37:13.642Z,100832.34
2022-11-05T23:39:21.221Z,100834.75
2022-11-05T23:41:55.454Z,100837.31
2022-11-05T23:44:19.104Z,100831.22
2022-11-05T23:46:49.316Z,100832.81
2022-11-05T23:49:03.248Z,100836.81
2022-11-05T23:51:22.503Z,100833.19
2022-11-05T23:53:25.409Z,100836.34
2022-11-05T23:55:33.518Z,100836.34
2022-11-05T23:57:35.796Z,100838.97
2022-11-05T23:59:40.410Z,100848.03
